Time;durP1;ratioP1;P1;durP2;ratioP2;P2;SDS_P1;SDS_P2;PMS_P1;PMS_P2;Temp;Humidity;BMP_temperature;BMP_pressure;BME280_temperature;BME280_humidity;BME280_pressure;Samples;Min_cycle;Max_cycle;Signal;HPM_P1;HPM_P2
2022/04/03 00:00:38;;;;;;;1.13;0.98;;;19.20;46.30;;;;;;5069093;28;20036;-69
2022/04/03 00:03:05;;;;;;;2.38;1.25;;;19.20;45.50;;;;;;5066641;28;20067;-69
2022/04/03 00:05:35;;;;;;;2.08;1.38;;;19.20;45.50;;;;;;5071509;28;20430;-69
2022/04/03 00:08:01;;;;;;;2.03;1.17;;;19.20;45.50;;;;;;5068682;28;20051;-69
2022/04/03 00:10:27;;;;;;;1.73;1.25;;;19.20;45.50;;;;;;5058443;28;20044;-68
2022/04/03 00:12:53;;;;;;;1.95;1.40;;;19.20;45.50;;;;;;5057122;28;20781;-68
2022/04/03 00:15:19;;;;;;;1.55;1.30;;;19.20;45.50;;;;;;5059856;28;20336;-69
2022/04/03 00:17:45;;;;;;;1.98;1.33;;;19.20;45.50;;;;;;5072098;28;20520;-69
2022/04/03 00:20:13;;;;;;;2.13;1.10;;;19.20;45.40;;;;;;5069784;28;20037;-68
2022/04/03 00:22:39;;;;;;;1.33;1.00;;;19.20;45.40;;;;;;5066745;28;20123;-69
2022/04/03 00:25:06;;;;;;;2.33;1.27;;;19.20;45.40;;;;;;5071630;28;20028;-69
2022/04/03 00:27:32;;;;;;;1.25;0.98;;;19.20;45.50;;;;;;5070986;28;20556;-68
2022/04/03 00:29:57;;;;;;;2.30;1.27;;;19.10;45.40;;;;;;5054614;28;20045;-69
2022/04/03 00:32:23;;;;;;;1.67;1.10;;;19.20;45.40;;;;;;5069013;28;20090;-69
2022/04/03 00:34:49;;;;;;;2.13;1.35;;;19.10;45.40;;;;;;5067428;28;20090;-69
2022/04/03 00:37:15;;;;;;;4.55;1.42;;;19.20;45.50;;;;;;5058625;28;20044;-68
2022/04/03 00:39:41;;;;;;;1.45;1.00;;;19.10;45.40;;;;;;5070199;28;20442;-69
2022/04/03 00:42:08;;;;;;;1.42;1.10;;;19.10;45.40;;;;;;5071010;28;20080;-67
2022/04/03 00:44:35;;;;;;;1.75;1.15;;;19.10;45.40;;;;;;5070605;28;20032;-68
2022/04/03 00:47:03;;;;;;;2.03;1.02;;;19.10;45.40;;;;;;5072276;28;20045;-68
2022/04/03 00:49:30;;;;;;;1.50;1.20;;;19.10;45.40;;;;;;5059513;28;20054;-69
2022/04/03 00:51:57;;;;;;;1.05;0.95;;;19.10;45.40;;;;;;5067812;28;20319;-69
2022/04/03 00:54:23;;;;;;;1.65;1.00;;;19.10;45.30;;;;;;5071360;28;20044;-69
2022/04/03 00:56:49;;;;;;;1.88;1.02;;;19.10;45.30;;;;;;5069775;28;20040;-69
2022/04/03 00:59:15;;;;;;;1.58;1.20;;;19.10;45.30;;;;;;5070473;28;20487;-69
2022/04/03 01:01:42;;;;;;;2.08;1.23;;;19.10;45.30;;;;;;5062551;28;20056;-69
2022/04/03 01:04:08;;;;;;;1.15;0.90;;;19.10;45.30;;;;;;5060853;28;20039;-69
2022/04/03 01:06:34;;;;;;;1.80;1.15;;;19.10;45.30;;;;;;5063971;28;20033;-69
2022/04/03 01:09:03;;;;;;;1.17;0.93;;;19.10;45.30;;;;;;5056369;28;20449;-69
2022/04/03 01:11:29;;;;;;;2.35;1.20;;;19.10;45.30;;;;;;5052944;28;20052;-68
2022/04/03 01:13:55;;;;;;;1.65;1.08;;;19.10;45.30;;;;;;5074949;28;20059;-69
2022/04/03 01:16:21;;;;;;;1.65;1.08;;;19.10;45.20;;;;;;5065662;28;20050;-69
2022/04/03 01:18:47;;;;;;;1.63;1.13;;;19.10;45.20;;;;;;5073215;28;20044;-68
2022/04/03 01:21:14;;;;;;;2.75;1.02;;;19.10;45.20;;;;;;5070578;28;20041;-68
2022/04/03 01:23:40;;;;;;;1.20;1.00;;;19.10;45.20;;;;;;5076664;28;20039;-68
2022/04/03 01:26:06;;;;;;;1.50;1.00;;;19.10;45.10;;;;;;5076850;28;20131;-69
2022/04/03 01:28:32;;;;;;;1.38;1.08;;;19.10;45.20;;;;;;5069874;28;20120;-68
2022/04/03 01:30:57;;;;;;;1.67;1.10;;;19.10;45.10;;;;;;5072075;28;20082;-69
2022/04/03 01:33:23;;;;;;;1.52;1.00;;;19.10;45.10;;;;;;5071253;28;20036;-69
2022/04/03 01:35:49;;;;;;;1.27;1.10;;;19.10;45.10;;;;;;5086425;28;20044;-69
2022/04/03 01:38:15;;;;;;;4.53;1.10;;;19.10;45.10;;;;;;5078968;28;20510;-69
2022/04/03 01:40:42;;;;;;;1.15;1.00;;;19.00;45.10;;;;;;5086133;28;20036;-69
2022/04/03 01:43:10;;;;;;;1.60;1.10;;;19.10;45.10;;;;;;5074594;28;20119;-69
2022/04/03 01:45:37;;;;;;;1.52;1.00;;;19.10;45.10;;;;;;5071133;28;20518;-69
2022/04/03 01:48:04;;;;;;;1.40;1.15;;;19.10;45.10;;;;;;5074763;28;20040;-68
2022/04/03 01:50:30;;;;;;;0.95;0.82;;;19.10;45.10;;;;;;5070185;28;20122;-68
2022/04/03 01:52:56;;;;;;;1.20;0.90;;;19.10;45.00;;;;;;5076489;28;20029;-69
2022/04/03 01:55:24;;;;;;;1.75;1.15;;;19.10;45.10;;;;;;5084704;28;20700;-68
2022/04/03 01:57:49;;;;;;;1.10;0.95;;;19.00;45.10;;;;;;5051256;28;20124;-68
2022/04/03 02:00:15;;;;;;;0.98;0.77;;;19.10;45.00;;;;;;5069264;28;20626;-69
2022/04/03 02:02:41;;;;;;;1.35;1.00;;;19.10;45.00;;;;;;5069836;28;20039;-69
2022/04/03 02:05:08;;;;;;;1.40;0.90;;;19.10;45.00;;;;;;5065831;28;20040;-68
2022/04/03 02:07:35;;;;;;;2.50;1.10;;;19.10;45.00;;;;;;5069669;28;20040;-68
2022/04/03 02:10:08;;;;;;;1.40;0.85;;;19.10;45.00;;;;;;5070013;28;20532;-68
2022/04/03 02:12:38;;;;;;;1.27;1.00;;;19.00;44.90;;;;;;5068869;28;20044;-68
2022/04/03 02:15:07;;;;;;;1.52;0.95;;;19.10;45.00;;;;;;5063798;28;20056;-68
2022/04/03 02:17:33;;;;;;;1.67;1.10;;;19.00;44.90;;;;;;5068858;28;20558;-67
2022/04/03 02:19:58;;;;;;;1.55;1.00;;;19.00;44.90;;;;;;5069362;28;20127;-68
2022/04/03 02:22:24;;;;;;;2.38;1.20;;;19.00;44.90;;;;;;5070108;28;20075;-68
2022/04/03 02:24:50;;;;;;;1.73;1.10;;;19.10;45.00;;;;;;5067955;28;20041;-69
2022/04/03 02:27:16;;;;;;;2.10;0.90;;;19.00;44.90;;;;;;5070054;28;20033;-68
2022/04/03 02:29:41;;;;;;;1.25;0.95;;;19.00;45.00;;;;;;5069212;28;20047;-68
2022/04/03 02:32:07;;;;;;;1.75;0.85;;;19.00;45.00;;;;;;5059480;28;20468;-68
2022/04/03 02:34:33;;;;;;;1.10;0.90;;;19.00;45.00;;;;;;5072227;28;20052;-68
2022/04/03 02:36:59;;;;;;;0.90;0.75;;;19.00;45.00;;;;;;5070904;28;20810;-68
2022/04/03 02:39:25;;;;;;;1.85;0.93;;;19.00;44.90;;;;;;5074323;28;20578;-68
2022/04/03 02:41:51;;;;;;;1.60;1.10;;;19.00;44.90;;;;;;5068600;28;20480;-69
2022/04/03 02:44:17;;;;;;;1.10;0.80;;;19.00;44.90;;;;;;5071966;28;20040;-68
2022/04/03 02:46:42;;;;;;;1.65;1.00;;;19.00;44.90;;;;;;5061069;28;20679;-68
2022/04/03 02:49:08;;;;;;;1.10;0.90;;;19.00;45.00;;;;;;5073785;28;20044;-68
2022/04/03 02:51:37;;;;;;;3.58;1.00;;;19.00;45.00;;;;;;5060878;28;20052;-69
2022/04/03 02:54:04;;;;;;;1.13;0.90;;;19.00;44.90;;;;;;5074276;28;20101;-68
2022/04/03 02:56:30;;;;;;;1.08;0.90;;;19.00;44.90;;;;;;5069012;28;20044;-68
2022/04/03 02:58:56;;;;;;;1.13;0.80;;;19.00;44.90;;;;;;5073213;28;20028;-69
2022/04/03 03:01:23;;;;;;;1.10;0.77;;;19.00;44.80;;;;;;5068838;28;20056;-68
2022/04/03 03:03:50;;;;;;;1.05;0.82;;;19.00;44.90;;;;;;5071949;28;20052;-68
2022/04/03 03:06:16;;;;;;;1.83;0.90;;;19.00;44.90;;;;;;5065380;28;20072;-68
2022/04/03 03:08:43;;;;;;;1.00;0.82;;;19.00;44.80;;;;;;5063348;28;20033;-68
2022/04/03 03:11:10;;;;;;;1.30;0.90;;;19.00;44.80;;;;;;5061587;28;20137;-68
2022/04/03 03:13:36;;;;;;;1.75;0.88;;;19.00;44.80;;;;;;5062905;28;20064;-68
2022/04/03 03:16:06;;;;;;;1.20;0.90;;;19.00;44.90;;;;;;5066176;28;20174;-68
2022/04/03 03:18:31;;;;;;;2.25;1.02;;;19.00;44.80;;;;;;5068304;28;20090;-68
2022/04/03 03:20:57;;;;;;;1.00;0.82;;;19.00;44.80;;;;;;5066876;28;20054;-68
2022/04/03 03:23:24;;;;;;;1.60;0.77;;;19.00;44.80;;;;;;5069580;28;20127;-68
2022/04/03 03:25:52;;;;;;;2.92;1.00;;;19.00;44.90;;;;;;5072588;28;20075;-68
2022/04/03 03:28:18;;;;;;;1.50;0.90;;;19.00;44.80;;;;;;5072301;28;20052;-68
2022/04/03 03:30:43;;;;;;;1.48;1.05;;;19.00;44.90;;;;;;5071855;28;20131;-68
2022/04/03 03:33:09;;;;;;;2.38;0.90;;;19.00;44.80;;;;;;5061368;28;20041;-68
2022/04/03 03:35:35;;;;;;;0.95;0.77;;;19.00;44.80;;;;;;5069797;28;20094;-68
2022/04/03 03:38:01;;;;;;;1.95;0.90;;;19.00;44.80;;;;;;5073334;28;20531;-68
2022/04/03 03:40:27;;;;;;;1.15;0.90;;;19.00;44.90;;;;;;5073052;28;20147;-68
2022/04/03 03:42:53;;;;;;;1.02;0.73;;;19.00;44.90;;;;;;5071577;28;20039;-68
2022/04/03 03:45:19;;;;;;;1.00;0.80;;;19.00;44.90;;;;;;5072420;28;20466;-68
2022/04/03 03:47:46;;;;;;;1.55;0.90;;;19.00;44.90;;;;;;5073457;28;20049;-68
2022/04/03 03:50:14;;;;;;;0.95;0.70;;;19.00;44.80;;;;;;5071107;28;20449;-69
2022/04/03 03:52:41;;;;;;;1.73;0.88;;;19.00;44.90;;;;;;5072922;28;20048;-68
2022/04/03 03:55:08;;;;;;;1.02;0.90;;;19.00;44.90;;;;;;5072052;28;20119;-68
2022/04/03 03:57:34;;;;;;;1.65;0.90;;;19.00;44.90;;;;;;5054670;28;20043;-68
2022/04/03 03:59:59;;;;;;;0.90;0.80;;;18.90;44.80;;;;;;5072452;28;20719;-68
2022/04/03 04:02:27;;;;;;;1.35;0.90;;;19.00;44.80;;;;;;5070643;28;20040;-69
2022/04/03 04:04:52;;;;;;;1.77;0.82;;;19.00;44.80;;;;;;5064614;28;20036;-68
2022/04/03 04:07:18;;;;;;;1.20;1.00;;;19.00;44.80;;;;;;5056152;28;20059;-68
2022/04/03 04:09:44;;;;;;;1.85;0.80;;;18.90;44.80;;;;;;5072599;28;20403;-68
2022/04/03 04:12:10;;;;;;;0.93;0.75;;;19.00;44.90;;;;;;5054850;28;20033;-68
2022/04/03 04:14:38;;;;;;;1.88;0.80;;;19.00;44.90;;;;;;5072686;28;20507;-69
2022/04/03 04:17:06;;;;;;;1.25;0.80;;;18.90;44.80;;;;;;5064533;28;20040;-68
2022/04/03 04:19:32;;;;;;;0.93;0.70;;;19.00;44.90;;;;;;5072362;28;20993;-68
2022/04/03 04:21:58;;;;;;;0.98;0.88;;;19.00;44.90;;;;;;5072897;28;20033;-68
2022/04/03 04:24:23;;;;;;;1.73;0.90;;;18.90;44.90;;;;;;5065832;28;20033;-67
2022/04/03 04:26:49;;;;;;;1.48;1.00;;;19.00;45.00;;;;;;5061903;28;20056;-67
2022/04/03 04:29:15;;;;;;;1.40;1.00;;;19.00;44.90;;;;;;5063159;28;20048;-68
2022/04/03 04:31:41;;;;;;;1.50;0.90;;;19.00;45.00;;;;;;5070275;28;20129;-68
2022/04/03 04:34:07;;;;;;;1.67;0.80;;;19.00;45.00;;;;;;5058697;28;20045;-68
2022/04/03 04:36:33;;;;;;;1.05;0.80;;;19.00;44.90;;;;;;5075249;28;20094;-71
2022/04/03 04:39:00;;;;;;;0.85;0.75;;;19.00;44.90;;;;;;5071177;28;20040;-68
2022/04/03 04:41:26;;;;;;;1.02;0.80;;;19.00;44.90;;;;;;5071999;28;20391;-68
2022/04/03 04:43:52;;;;;;;1.30;0.60;;;19.00;44.90;;;;;;5071112;28;20034;-68
2022/04/03 04:46:17;;;;;;;1.00;0.70;;;19.00;44.90;;;;;;5070881;28;20044;-68
2022/04/03 04:48:43;;;;;;;0.75;0.65;;;19.00;44.90;;;;;;5071711;28;20048;-68
2022/04/03 04:51:09;;;;;;;1.23;0.85;;;19.00;45.00;;;;;;5069461;28;20446;-68
2022/04/03 04:53:35;;;;;;;2.05;0.80;;;19.00;45.00;;;;;;5070531;28;20123;-68
2022/04/03 04:56:01;;;;;;;1.38;0.82;;;19.00;44.90;;;;;;5056642;28;20102;-68
2022/04/03 04:58:27;;;;;;;0.90;0.70;;;19.00;44.90;;;;;;5070262;28;20033;-69
2022/04/03 05:00:53;;;;;;;1.88;0.80;;;19.00;45.00;;;;;;5068417;28;20040;-69
2022/04/03 05:03:19;;;;;;;0.95;0.63;;;19.00;45.00;;;;;;5071623;28;20037;-68
2022/04/03 05:05:45;;;;;;;1.30;0.90;;;19.00;44.90;;;;;;5071476;28;20048;-68
2022/04/03 05:08:12;;;;;;;1.23;0.70;;;19.00;45.00;;;;;;5071568;28;20047;-69
2022/04/03 05:10:38;;;;;;;1.67;0.80;;;19.00;45.00;;;;;;5071306;28;20109;-69
2022/04/03 05:13:09;;;;;;;1.10;0.73;;;19.00;44.90;;;;;;5070595;28;20056;-68
2022/04/03 05:15:37;;;;;;;1.50;0.75;;;19.00;44.90;;;;;;5070317;28;20048;-68
2022/04/03 05:18:03;;;;;;;1.38;0.70;;;19.00;45.00;;;;;;5071733;28;20147;-68
2022/04/03 05:20:29;;;;;;;1.10;0.80;;;19.00;45.00;;;;;;5071075;28;20072;-68
2022/04/03 05:22:55;;;;;;;1.20;0.90;;;19.00;45.00;;;;;;5055348;28;20074;-68
2022/04/03 05:25:21;;;;;;;1.60;0.82;;;19.00;45.00;;;;;;5066721;28;20044;-68
2022/04/03 05:27:48;;;;;;;0.80;0.70;;;19.00;45.00;;;;;;5052258;28;20651;-68
2022/04/03 05:30:17;;;;;;;0.82;0.80;;;19.00;45.00;;;;;;5052469;28;20037;-68
2022/04/03 05:32:43;;;;;;;1.10;0.80;;;19.00;45.00;;;;;;5067878;28;20499;-68
2022/04/03 05:35:10;;;;;;;1.55;0.70;;;19.00;45.00;;;;;;5064278;28;20583;-68
2022/04/03 05:37:39;;;;;;;1.08;0.75;;;19.00;45.00;;;;;;5071023;28;20041;-68
2022/04/03 05:40:05;;;;;;;0.63;0.57;;;19.00;45.00;;;;;;5070533;28;20041;-69
2022/04/03 05:42:33;;;;;;;0.80;0.68;;;19.00;45.00;;;;;;5069761;28;20032;-68
2022/04/03 05:44:59;;;;;;;0.82;0.70;;;19.00;45.00;;;;;;5068742;28;20032;-68
2022/04/03 05:47:25;;;;;;;1.00;0.80;;;19.00;45.00;;;;;;5070333;28;20072;-69
2022/04/03 05:49:50;;;;;;;0.77;0.70;;;19.00;45.00;;;;;;5068534;28;20095;-68
2022/04/03 05:52:16;;;;;;;1.02;0.80;;;19.00;45.00;;;;;;5070444;28;20078;-66
2022/04/03 05:54:42;;;;;;;0.82;0.75;;;19.00;45.00;;;;;;5069537;28;20097;-68
2022/04/03 05:57:10;;;;;;;0.73;0.55;;;19.00;44.90;;;;;;5064232;28;20044;-69
2022/04/03 05:59:36;;;;;;;0.90;0.80;;;19.10;45.00;;;;;;5051461;28;20036;-69
2022/04/03 06:02:05;;;;;;;2.30;0.75;;;19.10;45.00;;;;;;5062933;28;20398;-69
2022/04/03 06:04:32;;;;;;;1.20;0.80;;;19.00;45.20;;;;;;5061194;28;20070;-67
2022/04/03 06:06:59;;;;;;;1.38;0.73;;;19.10;45.10;;;;;;5078683;28;20048;-66
2022/04/03 06:09:24;;;;;;;0.80;0.70;;;19.10;45.10;;;;;;5069465;28;20082;-67
2022/04/03 06:11:52;;;;;;;2.08;0.90;;;19.10;45.20;;;;;;5063809;28;20033;-67
2022/04/03 06:14:17;;;;;;;2.75;0.90;;;19.10;45.30;;;;;;5056065;28;20821;-67
2022/04/03 06:16:45;;;;;;;1.65;0.93;;;19.10;45.30;;;;;;5070116;28;20506;-67
2022/04/03 06:19:11;;;;;;;0.85;0.77;;;19.20;45.30;;;;;;5062413;28;20454;-69
2022/04/03 06:21:37;;;;;;;1.50;0.85;;;19.20;45.30;;;;;;5069596;28;20399;-67
2022/04/03 06:24:03;;;;;;;0.95;0.70;;;19.20;45.30;;;;;;5084355;28;20044;-67
2022/04/03 06:26:29;;;;;;;1.65;0.80;;;19.20;45.30;;;;;;5059632;28;20072;-68
2022/04/03 06:28:54;;;;;;;0.95;0.80;;;19.20;45.40;;;;;;5066481;28;20037;-66
2022/04/03 06:31:20;;;;;;;1.48;0.70;;;19.20;45.50;;;;;;5055607;28;20117;-69
2022/04/03 06:33:46;;;;;;;0.73;0.60;;;19.20;45.50;;;;;;5069777;28;20116;-68
2022/04/03 06:36:12;;;;;;;0.80;0.70;;;19.20;45.40;;;;;;5070468;28;20047;-68
2022/04/03 06:38:37;;;;;;;0.93;0.70;;;19.20;45.50;;;;;;5067160;28;20091;-69
2022/04/03 06:41:03;;;;;;;1.90;0.90;;;19.20;45.50;;;;;;5063232;28;20086;-68
2022/04/03 06:43:30;;;;;;;1.25;0.80;;;19.20;45.60;;;;;;5068117;28;20048;-68
2022/04/03 06:45:56;;;;;;;1.42;0.93;;;19.20;45.60;;;;;;5069664;28;20123;-69
2022/04/03 06:48:23;;;;;;;1.40;0.70;;;19.20;45.70;;;;;;5069621;28;20485;-69
2022/04/03 06:50:49;;;;;;;1.00;0.80;;;19.20;45.70;;;;;;5066332;28;20131;-69
2022/04/03 06:53:15;;;;;;;1.73;0.70;;;19.30;45.80;;;;;;5069496;28;20049;-71
2022/04/03 06:55:41;;;;;;;1.40;0.73;;;19.30;45.80;;;;;;5062948;28;20626;-70
2022/04/03 06:58:07;;;;;;;4.38;0.90;;;19.30;45.90;;;;;;5070910;28;20036;-68
2022/04/03 07:00:37;;;;;;;2.60;0.70;;;19.30;45.90;;;;;;5071515;28;20049;-69
2022/04/03 07:03:03;;;;;;;1.55;0.80;;;19.40;46.00;;;;;;5063210;28;20043;-68
2022/04/03 07:05:28;;;;;;;1.30;0.80;;;19.40;46.00;;;;;;5068932;28;20032;-69
2022/04/03 07:07:54;;;;;;;1.52;0.70;;;19.40;46.00;;;;;;5069245;28;20089;-69
2022/04/03 07:10:20;;;;;;;9.90;0.90;;;19.40;46.70;;;;;;5059911;28;20080;-70
2022/04/03 07:12:46;;;;;;;3.83;0.85;;;19.40;45.90;;;;;;5067781;28;20040;-69
2022/04/03 07:15:13;;;;;;;2.00;0.70;;;19.40;45.90;;;;;;5062693;28;20048;-68
2022/04/03 07:17:40;;;;;;;1.75;0.80;;;19.40;45.80;;;;;;5078541;28;20051;-66
2022/04/03 07:20:06;;;;;;;3.45;0.90;;;19.50;45.80;;;;;;5070992;28;20406;-68
2022/04/03 07:22:32;;;;;;;5.38;0.70;;;19.50;45.70;;;;;;5073305;28;20124;-68
2022/04/03 07:24:58;;;;;;;2.50;0.90;;;19.50;45.80;;;;;;5070567;28;20115;-69
2022/04/03 07:27:24;;;;;;;2.38;0.90;;;19.60;45.80;;;;;;5072627;28;20036;-69
2022/04/03 07:29:49;;;;;;;2.80;1.35;;;19.60;45.90;;;;;;5067025;28;20040;-68
2022/04/03 07:32:15;;;;;;;1.48;0.70;;;19.70;46.00;;;;;;5068904;28;20090;-69
2022/04/03 07:34:41;;;;;;;2.60;0.85;;;19.70;46.20;;;;;;5062762;28;20041;-67
2022/04/03 07:37:06;;;;;;;6.53;1.27;;;19.70;46.50;;;;;;5073385;28;20376;-67
2022/04/03 07:39:34;;;;;;;2.65;0.90;;;19.80;46.90;;;;;;5062339;28;20075;-67
2022/04/03 07:42:00;;;;;;;1.58;0.90;;;19.80;47.20;;;;;;5066665;28;20044;-67
2022/04/03 07:44:25;;;;;;;2.88;0.82;;;19.90;47.30;;;;;;5066291;28;20386;-68
2022/04/03 07:46:51;;;;;;;3.53;0.90;;;20.00;47.50;;;;;;5072879;28;20506;-68
2022/04/03 07:49:17;;;;;;;2.45;0.80;;;20.00;47.60;;;;;;5071781;28;20040;-66
2022/04/03 07:51:42;;;;;;;2.05;1.00;;;20.10;47.60;;;;;;5064976;28;20624;-66
2022/04/03 07:54:08;;;;;;;3.60;1.05;;;20.10;47.80;;;;;;5072606;28;20048;-68
2022/04/03 07:56:34;;;;;;;1.90;1.00;;;20.20;47.80;;;;;;5072854;28;20032;-68
2022/04/03 07:59:01;;;;;;;3.75;1.00;;;20.20;47.80;;;;;;5070777;28;20123;-66
2022/04/03 08:01:28;;;;;;;2.17;0.90;;;20.30;47.90;;;;;;5071082;28;20061;-68
2022/04/03 08:03:53;;;;;;;5.18;1.13;;;20.30;47.80;;;;;;5065407;28;20041;-67
2022/04/03 08:06:19;;;;;;;1.95;0.80;;;20.30;47.70;;;;;;5070950;28;20044;-67
2022/04/03 08:08:45;;;;;;;3.47;0.90;;;20.40;47.80;;;;;;5070368;28;20072;-67
2022/04/03 08:11:11;;;;;;;2.83;0.80;;;20.40;47.80;;;;;;5070918;28;20037;-66
2022/04/03 08:13:37;;;;;;;1.38;1.00;;;20.40;47.80;;;;;;5068100;28;20041;-67
2022/04/03 08:16:03;;;;;;;1.50;0.80;;;20.40;47.80;;;;;;5070872;28;20069;-67
2022/04/03 08:18:28;;;;;;;1.48;0.90;;;20.50;47.80;;;;;;5062588;28;20041;-67
2022/04/03 08:20:54;;;;;;;2.42;0.80;;;20.50;47.80;;;;;;5059498;28;20037;-68
2022/04/03 08:23:20;;;;;;;5.05;1.00;;;20.50;47.70;;;;;;5071775;28;20049;-66
2022/04/03 08:25:46;;;;;;;1.73;0.90;;;20.60;47.70;;;;;;5071831;28;20052;-67
2022/04/03 08:28:11;;;;;;;3.53;0.75;;;20.60;47.70;;;;;;5068309;28;20047;-69
2022/04/03 08:30:38;;;;;;;4.90;0.90;;;20.70;47.70;;;;;;5065190;28;20035;-69
2022/04/03 08:33:05;;;;;;;2.63;0.82;;;20.70;47.80;;;;;;5069727;28;20074;-69
2022/04/03 08:35:33;;;;;;;2.10;0.80;;;20.70;47.80;;;;;;5084052;28;20509;-68
2022/04/03 08:38:00;;;;;;;3.13;0.82;;;20.70;47.80;;;;;;5070107;28;20416;-67
2022/04/03 08:40:26;;;;;;;3.08;0.80;;;20.80;47.80;;;;;;5067967;28;20040;-67
2022/04/03 08:42:54;;;;;;;2.50;0.90;;;20.80;47.70;;;;;;5064558;28;20043;-69
2022/04/03 08:45:20;;;;;;;1.00;0.75;;;20.80;47.70;;;;;;5066566;28;20053;-68
2022/04/03 08:47:47;;;;;;;2.20;0.77;;;20.80;47.70;;;;;;5069725;28;20047;-68
2022/04/03 08:50:15;;;;;;;2.83;0.80;;;20.90;47.80;;;;;;5069404;28;20082;-69
2022/04/03 08:52:49;;;;;;;3.00;0.80;;;20.90;47.70;;;;;;5070214;28;20118;-68
2022/04/03 08:55:16;;;;;;;1.80;0.65;;;20.90;47.60;;;;;;5067272;28;20056;-69
2022/04/03 08:57:42;;;;;;;2.55;0.80;;;21.00;47.60;;;;;;5067366;28;20245;-68
2022/04/03 09:00:10;;;;;;;8.57;1.00;;;21.00;47.50;;;;;;5067658;28;20040;-68
2022/04/03 09:02:36;;;;;;;3.17;0.70;;;21.00;47.50;;;;;;5068829;28;20502;-67
2022/04/03 09:05:03;;;;;;;4.38;0.95;;;21.10;47.40;;;;;;5067958;28;20035;-68
2022/04/03 09:07:29;;;;;;;1.02;0.70;;;21.10;47.40;;;;;;5069887;28;20105;-68
2022/04/03 09:10:04;;;;;;;2.38;0.68;;;21.10;47.40;;;;;;5069048;28;20123;-69
2022/04/03 09:12:31;;;;;;;1.20;0.65;;;21.10;47.30;;;;;;5068723;28;20051;-68
2022/04/03 09:14:57;;;;;;;2.13;0.68;;;21.20;47.30;;;;;;5068916;28;20087;-67
2022/04/03 09:17:38;;;;;;;2.67;0.80;;;21.20;47.30;;;;;;5068837;28;20041;-67
2022/04/03 09:20:06;;;;;;;2.15;0.88;;;21.30;47.80;;;;;;5068867;28;20395;-68
2022/04/03 09:22:35;;;;;;;;;;;21.30;47.30;;;;;;5069736;28;20044;-67
2022/04/03 09:25:02;;;;;;;2.47;0.68;;;21.30;47.20;;;;;;5069505;28;20373;-68
2022/04/03 09:27:27;;;;;;;2.65;0.77;;;21.30;47.10;;;;;;5066655;28;20834;-68
2022/04/03 09:30:14;;;;;;;4.38;0.80;;;21.30;47.00;;;;;;5064767;28;20048;-67
2022/04/03 09:33:07;;;;;;;4.72;0.73;;;21.30;46.80;;;;;;5066862;28;20032;-67
2022/04/03 09:35:53;;;;;;;2.22;0.70;;;21.30;46.70;;;;;;5066242;28;20055;-68
2022/04/03 09:38:19;;;;;;;2.13;0.65;;;21.30;46.70;;;;;;5068120;28;20052;-68
2022/04/03 09:40:50;;;;;;;2.40;0.70;;;21.30;46.80;;;;;;5070042;28;20436;-68
2022/04/03 09:43:20;;;;;;;1.55;0.77;;;21.20;46.70;;;;;;5070377;28;20491;-68
2022/04/03 09:45:51;;;;;;;4.82;1.00;;;21.30;46.80;;;;;;5070965;28;20111;-67
2022/04/03 09:48:21;;;;;;;2.00;0.63;;;21.20;46.70;;;;;;5071541;28;20044;-68
2022/04/03 09:51:03;;;;;;;1.58;0.70;;;21.30;46.70;;;;;;5070898;28;20067;-67
2022/04/03 09:53:42;;;;;;;1.50;0.60;;;21.30;46.60;;;;;;5069299;28;20111;-69
2022/04/03 09:56:09;;;;;;;2.05;0.70;;;21.30;46.60;;;;;;5073085;28;20040;-68
2022/04/03 09:58:50;;;;;;;4.30;0.90;;;21.30;46.70;;;;;;5070193;28;20446;-68
2022/04/03 10:01:30;;;;;;;2.30;0.70;;;21.30;46.80;;;;;;5076841;28;20047;-68
2022/04/03 10:03:58;;;;;;;5.57;0.70;;;21.30;47.10;;;;;;5074376;28;20391;-67
2022/04/03 10:06:24;;;;;;;4.25;0.80;;;21.30;47.20;;;;;;5072486;28;20052;-67
2022/04/03 10:08:50;;;;;;;2.30;0.60;;;21.30;47.30;;;;;;5065264;28;20794;-67
2022/04/03 10:11:17;;;;;;;3.40;0.80;;;21.30;47.50;;;;;;5065691;28;20052;-67
2022/04/03 10:13:43;;;;;;;0.73;0.60;;;21.30;47.40;;;;;;5069133;28;20161;-67
2022/04/03 10:16:11;;;;;;;4.55;0.95;;;21.20;47.20;;;;;;5082496;28;20624;-67
2022/04/03 10:18:37;;;;;;;4.53;0.93;;;21.20;47.10;;;;;;5075039;28;20402;-67
2022/04/03 10:21:06;;;;;;;3.25;0.70;;;21.20;47.10;;;;;;5077955;28;20037;-69
2022/04/03 10:23:33;;;;;;;;;;;21.10;47.10;;;;;;5075832;28;20402;-67
2022/04/03 10:26:03;;;;;;;7.23;0.73;;;21.10;47.00;;;;;;5070959;28;19951;-67
2022/04/03 10:28:29;;;;;;;2.25;0.70;;;21.10;47.10;;;;;;5076332;28;20143;-67
2022/04/03 10:31:08;;;;;;;1.75;0.68;;;21.10;47.20;;;;;;5064220;28;20161;-66
2022/04/03 10:33:39;;;;;;;2.35;0.82;;;21.10;47.30;;;;;;5077363;28;20036;-69
2022/04/03 10:36:13;;;;;;;8.05;0.70;;;21.10;47.50;;;;;;5066388;28;20041;-68
2022/04/03 10:39:06;;;;;;;3.05;0.70;;;21.10;47.70;;;;;;5095579;28;20041;-71
2022/04/03 10:41:36;;;;;;;2.80;0.60;;;21.10;47.60;;;;;;5075132;28;20115;-68
2022/04/03 10:44:19;;;;;;;1.45;0.65;;;21.10;47.60;;;;;;5082732;28;20810;-72
2022/04/03 10:47:03;;;;;;;3.97;0.60;;;21.10;47.60;;;;;;5067771;28;20036;-68
2022/04/03 10:49:40;;;;;;;5.00;0.70;;;21.20;47.60;;;;;;5076228;28;20040;-69
2022/04/03 10:52:21;;;;;;;4.22;0.80;;;21.10;47.40;;;;;;5068910;28;20080;-69
2022/04/03 10:54:52;;;;;;;3.55;1.05;;;21.20;47.60;;;;;;5069107;28;20029;-68
2022/04/03 10:57:50;;;;;;;2.13;0.70;;;21.20;47.60;;;;;;5074495;28;20419;-68
2022/04/03 11:00:16;;;;;;;2.15;0.80;;;21.20;47.60;;;;;;5030479;28;20053;-67
2022/04/03 11:02:57;;;;;;;1.70;0.80;;;21.30;47.60;;;;;;5067962;28;20697;-66
2022/04/03 11:05:26;;;;;;;2.85;0.70;;;21.30;47.40;;;;;;5059991;28;20048;-69
2022/04/03 11:07:53;;;;;;;;;;;21.30;47.40;;;;;;5072915;28;20033;-70
2022/04/03 11:10:54;;;;;;;2.38;0.50;;;21.30;47.30;;;;;;5077452;28;19926;-68
2022/04/03 11:13:37;;;;;;;1.77;0.73;;;21.30;47.40;;;;;;5075545;28;20203;-68
2022/04/03 11:16:11;;;;;;;2.25;0.63;;;21.30;47.40;;;;;;5081497;28;20076;-68
2022/04/03 11:18:41;;;;;;;1.75;0.60;;;21.20;47.40;;;;;;5072014;28;20055;-69
2022/04/03 11:21:28;;;;;;;4.18;0.70;;;21.20;47.40;;;;;;5083474;28;20057;-68
2022/04/03 11:24:10;;;;;;;4.60;0.73;;;21.30;47.50;;;;;;5075061;28;20036;-68
2022/04/03 11:26:37;;;;;;;2.13;0.65;;;21.20;47.40;;;;;;5066830;28;20093;-68
2022/04/03 11:29:04;;;;;;;4.63;0.93;;;21.20;47.40;;;;;;5074692;28;20084;-67
2022/04/03 11:31:31;;;;;;;1.15;0.63;;;21.30;47.40;;;;;;5086670;28;20513;-67
2022/04/03 11:33:57;;;;;;;1.50;0.50;;;21.30;47.60;;;;;;5066820;28;20064;-67
2022/04/03 11:36:29;;;;;;;4.70;0.70;;;21.20;47.40;;;;;;5081325;28;20052;-68
2022/04/03 11:38:56;;;;;;;3.67;0.60;;;21.20;47.30;;;;;;5071652;28;20036;-71
2022/04/03 11:41:37;;;;;;;2.33;0.60;;;21.20;47.20;;;;;;5066690;28;20044;-66
2022/04/03 11:44:08;;;;;;;3.30;0.60;;;21.10;47.00;;;;;;5079564;28;20115;-66
2022/04/03 11:46:41;;;;;;;5.90;0.63;;;21.10;47.10;;;;;;5072830;28;20048;-67
2022/04/03 11:49:28;;;;;;;0.90;0.52;;;21.10;47.00;;;;;;5072383;28;20048;-67
2022/04/03 11:52:09;;;;;;;3.53;0.60;;;21.00;46.80;;;;;;5070432;28;20044;-66
2022/04/03 11:54:36;;;;;;;1.13;0.60;;;21.10;46.90;;;;;;5069561;28;20080;-69
2022/04/03 11:57:05;;;;;;;5.18;1.02;;;21.10;46.90;;;;;;5072343;28;20155;-68
2022/04/03 11:59:38;;;;;;;2.38;0.68;;;21.10;46.90;;;;;;5070869;28;20044;-68
2022/04/03 12:02:13;;;;;;;2.35;0.60;;;21.00;46.70;;;;;;5072720;28;20478;-69
2022/04/03 12:04:43;;;;;;;1.85;0.50;;;21.00;46.50;;;;;;5072533;28;20068;-69
2022/04/03 12:07:13;;;;;;;5.18;0.77;;;21.00;46.50;;;;;;5073026;28;20052;-69
2022/04/03 12:09:45;;;;;;;11.77;0.70;;;21.00;46.50;;;;;;5072291;28;20083;-69
2022/04/03 12:12:12;;;;;;;1.05;0.57;;;21.00;46.40;;;;;;5073974;28;20090;-69
2022/04/03 12:14:42;;;;;;;2.88;0.50;;;21.00;46.30;;;;;;5088907;28;20035;-69
2022/04/03 12:17:09;;;;;;;4.65;0.68;;;21.00;46.20;;;;;;5061773;28;20048;-69
2022/04/03 12:19:46;;;;;;;2.77;0.50;;;21.00;46.10;;;;;;5072378;28;20036;-69
2022/04/03 12:22:20;;;;;;;1.17;0.60;;;21.00;46.00;;;;;;5072909;28;20475;-68
2022/04/03 12:24:49;;;;;;;1.25;0.63;;;21.00;46.10;;;;;;5080896;28;20082;-69
2022/04/03 12:27:17;;;;;;;3.70;0.60;;;21.00;46.10;;;;;;5071866;28;20044;-69
2022/04/03 12:29:45;;;;;;;2.85;0.60;;;21.00;46.00;;;;;;5076862;28;20529;-69
2022/04/03 12:32:17;;;;;;;2.28;0.80;;;20.90;45.90;;;;;;5078009;28;20033;-69
2022/04/03 12:34:46;;;;;;;1.15;0.50;;;20.90;46.00;;;;;;5074709;28;20041;-70
2022/04/03 12:37:14;;;;;;;2.10;0.70;;;20.90;45.90;;;;;;5073502;28;20044;-68
2022/04/03 12:39:44;;;;;;;1.42;0.70;;;20.90;46.00;;;;;;5071251;28;20038;-67
2022/04/03 12:42:20;;;;;;;3.13;0.68;;;20.90;46.10;;;;;;5071801;28;20040;-68
2022/04/03 12:44:53;;;;;;;3.78;0.60;;;20.90;46.30;;;;;;5073231;28;20036;-68
2022/04/03 12:47:32;;;;;;;2.25;0.68;;;20.90;46.20;;;;;;5088818;28;20044;-69
2022/04/03 12:50:12;;;;;;;7.72;0.63;;;20.90;46.10;;;;;;5073248;28;20050;-68
2022/04/03 12:52:56;;;;;;;6.65;0.85;;;20.90;46.30;;;;;;5069129;28;20036;-68